sensor_id;sensor_type;location;lat;lon;timestamp;P1;durP1;ratioP1;P2;durP2;ratioP2
21729;SDS011;11027;51.030;13.812;2023-02-12T00:01:03;39.95;;;25.80;;
21729;SDS011;11027;51.030;13.812;2023-02-12T00:03:32;39.83;;;25.80;;
21729;SDS011;11027;51.030;13.812;2023-02-12T00:05:59;40.05;;;26.02;;
21729;SDS011;11027;51.030;13.812;2023-02-12T00:08:26;37.55;;;26.15;;
21729;SDS011;11027;51.030;13.812;2023-02-12T00:10:51;40.70;;;26.08;;
21729;SDS011;11027;51.030;13.812;2023-02-12T00:13:16;40.08;;;26.35;;
21729;SDS011;11027;51.030;13.812;2023-02-12T00:15:42;40.92;;;26.70;;
21729;SDS011;11027;51.030;13.812;2023-02-12T00:18:08;43.22;;;27.05;;
21729;SDS011;11027;51.030;13.812;2023-02-12T00:20:33;44.10;;;27.73;;
21729;SDS011;11027;51.030;13.812;2023-02-12T00:23:00;41.05;;;27.00;;
21729;SDS011;11027;51.030;13.812;2023-02-12T00:25:25;43.17;;;26.95;;
21729;SDS011;11027;51.030;13.812;2023-02-12T00:27:51;43.30;;;28.13;;
21729;SDS011;11027;51.030;13.812;2023-02-12T00:30:16;42.50;;;26.95;;
21729;SDS011;11027;51.030;13.812;2023-02-12T00:32:41;45.28;;;28.83;;
21729;SDS011;11027;51.030;13.812;2023-02-12T00:35:09;45.83;;;28.63;;
21729;SDS011;11027;51.030;13.812;2023-02-12T00:37:34;46.00;;;28.60;;
21729;SDS011;11027;51.030;13.812;2023-02-12T00:39:59;44.80;;;28.58;;
21729;SDS011;11027;51.030;13.812;2023-02-12T00:42:25;47.05;;;28.75;;
21729;SDS011;11027;51.030;13.812;2023-02-12T00:44:50;45.55;;;28.73;;
21729;SDS011;11027;51.030;13.812;2023-02-12T00:47:15;43.72;;;28.65;;
21729;SDS011;11027;51.030;13.812;2023-02-12T00:49:41;45.65;;;29.38;;
21729;SDS011;11027;51.030;13.812;2023-02-12T00:52:06;44.65;;;30.13;;
21729;SDS011;11027;51.030;13.812;2023-02-12T00:54:31;49.85;;;29.80;;
21729;SDS011;11027;51.030;13.812;2023-02-12T00:56:56;48.95;;;30.27;;
21729;SDS011;11027;51.030;13.812;2023-02-12T00:59:22;47.03;;;29.02;;
21729;SDS011;11027;51.030;13.812;2023-02-12T01:01:49;47.08;;;29.13;;
21729;SDS011;11027;51.030;13.812;2023-02-12T01:04:15;46.53;;;29.02;;
21729;SDS011;11027;51.030;13.812;2023-02-12T01:06:40;47.08;;;28.77;;
21729;SDS011;11027;51.030;13.812;2023-02-12T01:09:06;46.90;;;28.70;;
21729;SDS011;11027;51.030;13.812;2023-02-12T01:11:32;48.95;;;28.85;;
21729;SDS011;11027;51.030;13.812;2023-02-12T01:13:57;50.47;;;30.23;;
21729;SDS011;11027;51.030;13.812;2023-02-12T01:16:24;52.10;;;29.98;;
21729;SDS011;11027;51.030;13.812;2023-02-12T01:18:49;48.97;;;30.42;;
21729;SDS011;11027;51.030;13.812;2023-02-12T01:21:17;49.83;;;30.77;;
21729;SDS011;11027;51.030;13.812;2023-02-12T01:23:45;53.78;;;31.27;;
21729;SDS011;11027;51.030;13.812;2023-02-12T01:26:11;46.13;;;29.65;;
21729;SDS011;11027;51.030;13.812;2023-02-12T01:28:38;49.90;;;30.20;;
21729;SDS011;11027;51.030;13.812;2023-02-12T01:31:07;48.72;;;30.48;;
21729;SDS011;11027;51.030;13.812;2023-02-12T01:33:37;49.63;;;30.20;;
21729;SDS011;11027;51.030;13.812;2023-02-12T01:36:02;47.90;;;29.20;;
21729;SDS011;11027;51.030;13.812;2023-02-12T01:38:28;50.72;;;29.90;;
21729;SDS011;11027;51.030;13.812;2023-02-12T01:41:06;49.50;;;29.77;;
21729;SDS011;11027;51.030;13.812;2023-02-12T01:43:34;51.20;;;30.15;;
21729;SDS011;11027;51.030;13.812;2023-02-12T01:46:01;47.15;;;28.58;;
21729;SDS011;11027;51.030;13.812;2023-02-12T01:48:27;49.78;;;30.23;;
21729;SDS011;11027;51.030;13.812;2023-02-12T01:50:56;49.63;;;30.23;;
21729;SDS011;11027;51.030;13.812;2023-02-12T01:53:24;44.00;;;28.30;;
21729;SDS011;11027;51.030;13.812;2023-02-12T01:55:56;45.53;;;28.55;;
21729;SDS011;11027;51.030;13.812;2023-02-12T01:58:25;46.17;;;28.83;;
21729;SDS011;11027;51.030;13.812;2023-02-12T02:00:54;48.00;;;29.23;;
21729;SDS011;11027;51.030;13.812;2023-02-12T02:03:19;47.90;;;28.80;;
21729;SDS011;11027;51.030;13.812;2023-02-12T02:05:53;50.50;;;28.75;;
21729;SDS011;11027;51.030;13.812;2023-02-12T02:08:21;49.13;;;29.92;;
21729;SDS011;11027;51.030;13.812;2023-02-12T02:10:47;47.78;;;28.55;;
21729;SDS011;11027;51.030;13.812;2023-02-12T02:13:12;51.58;;;30.92;;
21729;SDS011;11027;51.030;13.812;2023-02-12T02:15:57;44.83;;;28.13;;
21729;SDS011;11027;51.030;13.812;2023-02-12T02:18:37;48.05;;;28.48;;
21729;SDS011;11027;51.030;13.812;2023-02-12T02:21:24;46.15;;;28.30;;
21729;SDS011;11027;51.030;13.812;2023-02-12T02:27:04;48.53;;;28.20;;
21729;SDS011;11027;51.030;13.812;2023-02-12T02:32:23;50.90;;;29.73;;
21729;SDS011;11027;51.030;13.812;2023-02-12T02:34:58;50.33;;;29.87;;
21729;SDS011;11027;51.030;13.812;2023-02-12T02:37:48;47.08;;;28.80;;
21729;SDS011;11027;51.030;13.812;2023-02-12T02:40:22;49.95;;;29.70;;
21729;SDS011;11027;51.030;13.812;2023-02-12T02:42:55;50.88;;;30.02;;
21729;SDS011;11027;51.030;13.812;2023-02-12T02:45:28;50.17;;;30.50;;
21729;SDS011;11027;51.030;13.812;2023-02-12T02:48:17;48.95;;;30.33;;
21729;SDS011;11027;51.030;13.812;2023-02-12T02:50:50;51.25;;;30.35;;
21729;SDS011;11027;51.030;13.812;2023-02-12T02:53:30;51.17;;;30.33;;
21729;SDS011;11027;51.030;13.812;2023-02-12T02:55:59;49.03;;;29.15;;
21729;SDS011;11027;51.030;13.812;2023-02-12T02:58:30;51.45;;;31.23;;
21729;SDS011;11027;51.030;13.812;2023-02-12T03:01:21;51.78;;;30.45;;
21729;SDS011;11027;51.030;13.812;2023-02-12T03:04:01;50.75;;;30.00;;
21729;SDS011;11027;51.030;13.812;2023-02-12T03:09:08;49.60;;;30.63;;
21729;SDS011;11027;51.030;13.812;2023-02-12T03:11:40;51.00;;;30.30;;
21729;SDS011;11027;51.030;13.812;2023-02-12T03:14:11;51.55;;;30.88;;
21729;SDS011;11027;51.030;13.812;2023-02-12T03:16:56;55.08;;;30.63;;
21729;SDS011;11027;51.030;13.812;2023-02-12T03:19:36;53.97;;;31.30;;
21729;SDS011;11027;51.030;13.812;2023-02-12T03:22:09;55.22;;;31.80;;
21729;SDS011;11027;51.030;13.812;2023-02-12T03:24:39;52.58;;;31.88;;
21729;SDS011;11027;51.030;13.812;2023-02-12T03:27:22;50.83;;;31.25;;
21729;SDS011;11027;51.030;13.812;2023-02-12T03:29:55;51.58;;;30.85;;
21729;SDS011;11027;51.030;13.812;2023-02-12T03:38:03;56.15;;;30.67;;
21729;SDS011;11027;51.030;13.812;2023-02-12T03:40:44;57.70;;;32.30;;
21729;SDS011;11027;51.030;13.812;2023-02-12T03:43:21;52.03;;;30.27;;
21729;SDS011;11027;51.030;13.812;2023-02-12T03:45:54;50.15;;;30.73;;
21729;SDS011;11027;51.030;13.812;2023-02-12T03:48:32;51.45;;;30.48;;
21729;SDS011;11027;51.030;13.812;2023-02-12T03:51:12;53.78;;;30.27;;
21729;SDS011;11027;51.030;13.812;2023-02-12T03:53:46;52.70;;;31.80;;
21729;SDS011;11027;51.030;13.812;2023-02-12T03:56:14;50.63;;;30.08;;
21729;SDS011;11027;51.030;13.812;2023-02-12T03:58:44;56.80;;;32.13;;
21729;SDS011;11027;51.030;13.812;2023-02-12T04:01:10;52.60;;;31.50;;
21729;SDS011;11027;51.030;13.812;2023-02-12T04:03:36;52.20;;;32.17;;
21729;SDS011;11027;51.030;13.812;2023-02-12T04:06:03;55.20;;;32.13;;
21729;SDS011;11027;51.030;13.812;2023-02-12T04:08:29;58.72;;;32.60;;
21729;SDS011;11027;51.030;13.812;2023-02-12T04:10:59;53.42;;;31.40;;
21729;SDS011;11027;51.030;13.812;2023-02-12T04:13:32;57.35;;;32.63;;
21729;SDS011;11027;51.030;13.812;2023-02-12T04:16:12;61.63;;;33.67;;
21729;SDS011;11027;51.030;13.812;2023-02-12T04:18:46;61.85;;;33.17;;
21729;SDS011;11027;51.030;13.812;2023-02-12T04:24:06;60.63;;;33.65;;
21729;SDS011;11027;51.030;13.812;2023-02-12T04:32:34;65.75;;;33.78;;
21729;SDS011;11027;51.030;13.812;2023-02-12T04:37:52;64.60;;;36.15;;
21729;SDS011;11027;51.030;13.812;2023-02-12T04:40:23;64.20;;;34.55;;
21729;SDS011;11027;51.030;13.812;2023-02-12T04:42:49;63.75;;;34.92;;
21729;SDS011;11027;51.030;13.812;2023-02-12T04:45:25;58.03;;;34.67;;
21729;SDS011;11027;51.030;13.812;2023-02-12T04:47:57;59.65;;;34.05;;
21729;SDS011;11027;51.030;13.812;2023-02-12T04:50:23;64.72;;;35.85;;
21729;SDS011;11027;51.030;13.812;2023-02-12T04:52:48;67.88;;;36.90;;
21729;SDS011;11027;51.030;13.812;2023-02-12T04:55:14;57.63;;;34.20;;
21729;SDS011;11027;51.030;13.812;2023-02-12T04:57:39;63.00;;;34.63;;
21729;SDS011;11027;51.030;13.812;2023-02-12T05:00:05;65.40;;;35.50;;
21729;SDS011;11027;51.030;13.812;2023-02-12T05:02:32;62.22;;;34.20;;
21729;SDS011;11027;51.030;13.812;2023-02-12T05:04:58;66.00;;;35.83;;
21729;SDS011;11027;51.030;13.812;2023-02-12T05:07:23;69.75;;;35.78;;
21729;SDS011;11027;51.030;13.812;2023-02-12T05:09:49;69.90;;;34.78;;
21729;SDS011;11027;51.030;13.812;2023-02-12T05:12:14;65.28;;;35.28;;
21729;SDS011;11027;51.030;13.812;2023-02-12T05:14:39;64.72;;;35.20;;
21729;SDS011;11027;51.030;13.812;2023-02-12T05:17:04;63.22;;;33.83;;
21729;SDS011;11027;51.030;13.812;2023-02-12T05:19:30;61.88;;;34.92;;
21729;SDS011;11027;51.030;13.812;2023-02-12T05:21:55;72.38;;;37.97;;
21729;SDS011;11027;51.030;13.812;2023-02-12T05:24:20;71.35;;;36.85;;
21729;SDS011;11027;51.030;13.812;2023-02-12T05:26:46;66.88;;;36.53;;
21729;SDS011;11027;51.030;13.812;2023-02-12T05:29:13;71.68;;;36.53;;
21729;SDS011;11027;51.030;13.812;2023-02-12T05:31:38;76.78;;;37.75;;
21729;SDS011;11027;51.030;13.812;2023-02-12T05:34:03;71.25;;;37.90;;
21729;SDS011;11027;51.030;13.812;2023-02-12T05:36:30;73.38;;;37.80;;
21729;SDS011;11027;51.030;13.812;2023-02-12T05:38:56;71.53;;;36.22;;
21729;SDS011;11027;51.030;13.812;2023-02-12T05:41:23;68.65;;;35.55;;
21729;SDS011;11027;51.030;13.812;2023-02-12T05:43:49;65.78;;;35.25;;
21729;SDS011;11027;51.030;13.812;2023-02-12T05:46:16;69.10;;;37.17;;
21729;SDS011;11027;51.030;13.812;2023-02-12T05:48:42;69.22;;;36.92;;
21729;SDS011;11027;51.030;13.812;2023-02-12T05:51:09;65.35;;;36.25;;
21729;SDS011;11027;51.030;13.812;2023-02-12T05:53:37;68.05;;;37.15;;
21729;SDS011;11027;51.030;13.812;2023-02-12T05:56:07;69.47;;;36.33;;
21729;SDS011;11027;51.030;13.812;2023-02-12T05:58:33;65.50;;;34.83;;
21729;SDS011;11027;51.030;13.812;2023-02-12T06:00:59;67.03;;;35.53;;
21729;SDS011;11027;51.030;13.812;2023-02-12T06:03:24;65.05;;;35.30;;
21729;SDS011;11027;51.030;13.812;2023-02-12T06:05:50;64.97;;;35.58;;
21729;SDS011;11027;51.030;13.812;2023-02-12T06:08:16;64.88;;;35.50;;
21729;SDS011;11027;51.030;13.812;2023-02-12T06:10:41;66.47;;;35.72;;
21729;SDS011;11027;51.030;13.812;2023-02-12T06:13:06;66.90;;;35.33;;
21729;SDS011;11027;51.030;13.812;2023-02-12T06:15:31;63.90;;;34.53;;
21729;SDS011;11027;51.030;13.812;2023-02-12T06:17:59;60.58;;;34.13;;
21729;SDS011;11027;51.030;13.812;2023-02-12T06:20:25;65.68;;;35.15;;
21729;SDS011;11027;51.030;13.812;2023-02-12T06:22:50;64.93;;;34.03;;
21729;SDS011;11027;51.030;13.812;2023-02-12T06:25:15;56.83;;;32.72;;
21729;SDS011;11027;51.030;13.812;2023-02-12T06:27:40;58.22;;;33.67;;
21729;SDS011;11027;51.030;13.812;2023-02-12T06:30:06;60.05;;;32.85;;
21729;SDS011;11027;51.030;13.812;2023-02-12T06:32:31;56.28;;;31.42;;
21729;SDS011;11027;51.030;13.812;2023-02-12T06:34:57;58.47;;;32.25;;
21729;SDS011;11027;51.030;13.812;2023-02-12T06:37:22;52.80;;;31.27;;
21729;SDS011;11027;51.030;13.812;2023-02-12T06:39:47;57.53;;;32.35;;
21729;SDS011;11027;51.030;13.812;2023-02-12T06:42:12;52.28;;;30.60;;
21729;SDS011;11027;51.030;13.812;2023-02-12T06:44:37;56.25;;;30.40;;
21729;SDS011;11027;51.030;13.812;2023-02-12T06:47:03;55.15;;;30.77;;
21729;SDS011;11027;51.030;13.812;2023-02-12T06:49:28;53.30;;;29.95;;
21729;SDS011;11027;51.030;13.812;2023-02-12T06:51:53;54.85;;;31.90;;
21729;SDS011;11027;51.030;13.812;2023-02-12T06:54:19;51.10;;;29.88;;
21729;SDS011;11027;51.030;13.812;2023-02-12T06:56:44;48.05;;;27.95;;
21729;SDS011;11027;51.030;13.812;2023-02-12T06:59:11;49.95;;;28.30;;
21729;SDS011;11027;51.030;13.812;2023-02-12T07:01:39;48.72;;;28.33;;
21729;SDS011;11027;51.030;13.812;2023-02-12T07:04:04;47.13;;;27.55;;
21729;SDS011;11027;51.030;13.812;2023-02-12T07:06:30;45.60;;;27.63;;
21729;SDS011;11027;51.030;13.812;2023-02-12T07:08:58;45.63;;;26.50;;
21729;SDS011;11027;51.030;13.812;2023-02-12T07:11:23;45.45;;;27.20;;
21729;SDS011;11027;51.030;13.812;2023-02-12T07:13:50;44.35;;;27.77;;
21729;SDS011;11027;51.030;13.812;2023-02-12T07:16:15;50.72;;;29.38;;
21729;SDS011;11027;51.030;13.812;2023-02-12T07:18:41;52.13;;;30.85;;
21729;SDS011;11027;51.030;13.812;2023-02-12T07:21:08;57.67;;;31.88;;
21729;SDS011;11027;51.030;13.812;2023-02-12T07:23:34;60.55;;;33.13;;
21729;SDS011;11027;51.030;13.812;2023-02-12T07:26:01;62.42;;;33.97;;
21729;SDS011;11027;51.030;13.812;2023-02-12T07:28:32;58.00;;;32.28;;
21729;SDS011;11027;51.030;13.812;2023-02-12T07:30:58;53.75;;;30.55;;
21729;SDS011;11027;51.030;13.812;2023-02-12T07:33:29;54.17;;;31.55;;
21729;SDS011;11027;51.030;13.812;2023-02-12T07:35:54;57.58;;;32.05;;
21729;SDS011;11027;51.030;13.812;2023-02-12T07:38:24;59.10;;;32.78;;
21729;SDS011;11027;51.030;13.812;2023-02-12T07:40:49;58.42;;;32.53;;
21729;SDS011;11027;51.030;13.812;2023-02-12T07:43:14;56.20;;;32.10;;
21729;SDS011;11027;51.030;13.812;2023-02-12T07:45:39;56.50;;;32.17;;
21729;SDS011;11027;51.030;13.812;2023-02-12T07:48:05;54.75;;;31.70;;
21729;SDS011;11027;51.030;13.812;2023-02-12T07:50:30;58.50;;;33.28;;
21729;SDS011;11027;51.030;13.812;2023-02-12T07:52:56;58.45;;;32.42;;
21729;SDS011;11027;51.030;13.812;2023-02-12T07:55:21;50.25;;;30.58;;
21729;SDS011;11027;51.030;13.812;2023-02-12T07:57:46;58.80;;;32.30;;
21729;SDS011;11027;51.030;13.812;2023-02-12T08:00:12;57.08;;;32.95;;
21729;SDS011;11027;51.030;13.812;2023-02-12T08:02:38;56.65;;;30.52;;
21729;SDS011;11027;51.030;13.812;2023-02-12T08:05:03;55.65;;;32.10;;
21729;SDS011;11027;51.030;13.812;2023-02-12T08:07:28;50.40;;;30.48;;
21729;SDS011;11027;51.030;13.812;2023-02-12T08:09:54;51.17;;;30.05;;
21729;SDS011;11027;51.030;13.812;2023-02-12T08:12:19;54.33;;;30.77;;
21729;SDS011;11027;51.030;13.812;2023-02-12T08:14:44;49.50;;;28.60;;
21729;SDS011;11027;51.030;13.812;2023-02-12T08:17:10;47.00;;;29.75;;
21729;SDS011;11027;51.030;13.812;2023-02-12T08:19:35;48.92;;;29.42;;
21729;SDS011;11027;51.030;13.812;2023-02-12T08:22:01;50.15;;;29.48;;
21729;SDS011;11027;51.030;13.812;2023-02-12T08:24:27;49.30;;;28.15;;
21729;SDS011;11027;51.030;13.812;2023-02-12T08:26:53;42.88;;;27.42;;
21729;SDS011;11027;51.030;13.812;2023-02-12T08:29:20;44.50;;;26.92;;
21729;SDS011;11027;51.030;13.812;2023-02-12T08:31:48;42.00;;;26.13;;
21729;SDS011;11027;51.030;13.812;2023-02-12T08:34:15;41.78;;;26.35;;
21729;SDS011;11027;51.030;13.812;2023-02-12T08:36:43;43.58;;;26.73;;
21729;SDS011;11027;51.030;13.812;2023-02-12T08:39:08;43.38;;;26.45;;
21729;SDS011;11027;51.030;13.812;2023-02-12T08:41:34;45.60;;;27.27;;
21729;SDS011;11027;51.030;13.812;2023-02-12T08:44:00;44.30;;;26.42;;
21729;SDS011;11027;51.030;13.812;2023-02-12T08:46:29;40.60;;;25.35;;
21729;SDS011;11027;51.030;13.812;2023-02-12T08:48:59;38.17;;;23.80;;
21729;SDS011;11027;51.030;13.812;2023-02-12T08:51:30;40.03;;;25.50;;
21729;SDS011;11027;51.030;13.812;2023-02-12T08:53:58;40.30;;;24.55;;
21729;SDS011;11027;51.030;13.812;2023-02-12T08:56:26;39.22;;;24.38;;
21729;SDS011;11027;51.030;13.812;2023-02-12T08:58:54;38.22;;;23.80;;
21729;SDS011;11027;51.030;13.812;2023-02-12T09:01:22;36.05;;;23.58;;
21729;SDS011;11027;51.030;13.812;2023-02-12T09:03:48;39.42;;;23.35;;
21729;SDS011;11027;51.030;13.812;2023-02-12T09:06:15;37.75;;;23.23;;
21729;SDS011;11027;51.030;13.812;2023-02-12T09:08:42;35.65;;;23.38;;
21729;SDS011;11027;51.030;13.812;2023-02-12T09:11:11;40.45;;;24.90;;
21729;SDS011;11027;51.030;13.812;2023-02-12T09:13:40;35.22;;;23.20;;
21729;SDS011;11027;51.030;13.812;2023-02-12T09:16:06;37.97;;;24.15;;
21729;SDS011;11027;51.030;13.812;2023-02-12T09:18:32;34.63;;;22.70;;
21729;SDS011;11027;51.030;13.812;2023-02-12T09:21:15;39.33;;;23.20;;
21729;SDS011;11027;51.030;13.812;2023-02-12T09:23:43;32.95;;;21.75;;
21729;SDS011;11027;51.030;13.812;2023-02-12T09:26:11;32.63;;;22.20;;
21729;SDS011;11027;51.030;13.812;2023-02-12T09:28:39;31.65;;;21.52;;
21729;SDS011;11027;51.030;13.812;2023-02-12T09:31:05;34.03;;;22.92;;
21729;SDS011;11027;51.030;13.812;2023-02-12T09:33:41;30.52;;;20.52;;
21729;SDS011;11027;51.030;13.812;2023-02-12T09:36:08;35.50;;;21.38;;
21729;SDS011;11027;51.030;13.812;2023-02-12T09:38:35;28.95;;;20.38;;
21729;SDS011;11027;51.030;13.812;2023-02-12T09:43:41;34.78;;;21.83;;
21729;SDS011;11027;51.030;13.812;2023-02-12T09:46:18;30.30;;;19.55;;
21729;SDS011;11027;51.030;13.812;2023-02-12T09:48:52;30.92;;;20.13;;
21729;SDS011;11027;51.030;13.812;2023-02-12T09:51:29;28.92;;;19.65;;
21729;SDS011;11027;51.030;13.812;2023-02-12T09:54:00;27.10;;;18.85;;
21729;SDS011;11027;51.030;13.812;2023-02-12T09:56:31;28.95;;;18.50;;
21729;SDS011;11027;51.030;13.812;2023-02-12T09:59:00;28.23;;;18.90;;
21729;SDS011;11027;51.030;13.812;2023-02-12T10:01:28;26.83;;;17.67;;
21729;SDS011;11027;51.030;13.812;2023-02-12T10:03:53;25.48;;;16.85;;
21729;SDS011;11027;51.030;13.812;2023-02-12T10:06:27;22.98;;;15.93;;
21729;SDS011;11027;51.030;13.812;2023-02-12T10:09:03;26.40;;;16.33;;
21729;SDS011;11027;51.030;13.812;2023-02-12T10:14:24;28.88;;;18.35;;
21729;SDS011;11027;51.030;13.812;2023-02-12T10:19:50;26.77;;;14.50;;
21729;SDS011;11027;51.030;13.812;2023-02-12T10:22:32;23.23;;;13.98;;
21729;SDS011;11027;51.030;13.812;2023-02-12T10:25:23;25.35;;;13.85;;
21729;SDS011;11027;51.030;13.812;2023-02-12T10:30:42;21.05;;;13.07;;
21729;SDS011;11027;51.030;13.812;2023-02-12T10:33:15;21.30;;;12.40;;
21729;SDS011;11027;51.030;13.812;2023-02-12T10:35:48;23.27;;;13.38;;
21729;SDS011;11027;51.030;13.812;2023-02-12T10:38:19;25.45;;;13.20;;
21729;SDS011;11027;51.030;13.812;2023-02-12T10:40:49;20.45;;;12.75;;
21729;SDS011;11027;51.030;13.812;2023-02-12T10:43:14;23.98;;;13.10;;
21729;SDS011;11027;51.030;13.812;2023-02-12T10:45:41;21.75;;;11.27;;
21729;SDS011;11027;51.030;13.812;2023-02-12T10:48:08;20.98;;;11.73;;
21729;SDS011;11027;51.030;13.812;2023-02-12T10:53:19;18.15;;;9.23;;
21729;SDS011;11027;51.030;13.812;2023-02-12T10:55:49;19.48;;;9.80;;
21729;SDS011;11027;51.030;13.812;2023-02-12T10:58:27;18.52;;;9.02;;
21729;SDS011;11027;51.030;13.812;2023-02-12T11:00:57;19.30;;;8.65;;
21729;SDS011;11027;51.030;13.812;2023-02-12T11:03:28;19.85;;;9.13;;
21729;SDS011;11027;51.030;13.812;2023-02-12T11:06:07;15.75;;;8.63;;
21729;SDS011;11027;51.030;13.812;2023-02-12T11:08:36;18.02;;;9.02;;
21729;SDS011;11027;51.030;13.812;2023-02-12T11:11:10;17.00;;;9.07;;
21729;SDS011;11027;51.030;13.812;2023-02-12T11:13:38;17.15;;;8.80;;
21729;SDS011;11027;51.030;13.812;2023-02-12T11:16:08;18.00;;;8.70;;
21729;SDS011;11027;51.030;13.812;2023-02-12T11:18:34;15.38;;;8.32;;
21729;SDS011;11027;51.030;13.812;2023-02-12T11:28:57;19.92;;;9.07;;
21729;SDS011;11027;51.030;13.812;2023-02-12T11:31:31;14.57;;;7.90;;
21729;SDS011;11027;51.030;13.812;2023-02-12T11:34:32;17.88;;;7.38;;
21729;SDS011;11027;51.030;13.812;2023-02-12T11:36:53;23.30;;;8.20;;
21729;SDS011;11027;51.030;13.812;2023-02-12T11:39:23;17.30;;;7.47;;
21729;SDS011;11027;51.030;13.812;2023-02-12T11:41:58;19.17;;;7.35;;
21729;SDS011;11027;51.030;13.812;2023-02-12T11:44:33;18.65;;;7.05;;
21729;SDS011;11027;51.030;13.812;2023-02-12T11:47:03;17.00;;;6.70;;
21729;SDS011;11027;51.030;13.812;2023-02-12T11:49:33;15.23;;;6.95;;
21729;SDS011;11027;51.030;13.812;2023-02-12T11:52:03;17.85;;;5.47;;
21729;SDS011;11027;51.030;13.812;2023-02-12T11:54:31;15.48;;;5.47;;
21729;SDS011;11027;51.030;13.812;2023-02-12T11:57:02;16.58;;;5.97;;
21729;SDS011;11027;51.030;13.812;2023-02-12T11:59:34;16.17;;;5.95;;
21729;SDS011;11027;51.030;13.812;2023-02-12T12:02:04;18.80;;;6.20;;
21729;SDS011;11027;51.030;13.812;2023-02-12T12:04:41;15.85;;;6.35;;
21729;SDS011;11027;51.030;13.812;2023-02-12T12:07:13;15.93;;;6.70;;
21729;SDS011;11027;51.030;13.812;2023-02-12T12:09:44;18.85;;;6.45;;
21729;SDS011;11027;51.030;13.812;2023-02-12T12:15:21;18.30;;;6.38;;
21729;SDS011;11027;51.030;13.812;2023-02-12T12:18:20;14.32;;;5.90;;
21729;SDS011;11027;51.030;13.812;2023-02-12T12:21:19;20.52;;;6.05;;
21729;SDS011;11027;51.030;13.812;2023-02-12T12:24:04;17.88;;;6.38;;
21729;SDS011;11027;51.030;13.812;2023-02-12T12:26:35;14.73;;;5.95;;
21729;SDS011;11027;51.030;13.812;2023-02-12T12:29:16;17.13;;;5.45;;
21729;SDS011;11027;51.030;13.812;2023-02-12T12:31:47;15.70;;;5.50;;
21729;SDS011;11027;51.030;13.812;2023-02-12T12:34:21;17.27;;;7.13;;
21729;SDS011;11027;51.030;13.812;2023-02-12T12:39:42;15.05;;;5.90;;
21729;SDS011;11027;51.030;13.812;2023-02-12T12:45:20;16.40;;;5.53;;
21729;SDS011;11027;51.030;13.812;2023-02-12T12:51:08;15.38;;;4.82;;
21729;SDS011;11027;51.030;13.812;2023-02-12T13:00:23;13.02;;;5.10;;
21729;SDS011;11027;51.030;13.812;2023-02-12T13:03:11;18.48;;;6.05;;
21729;SDS011;11027;51.030;13.812;2023-02-12T13:05:55;14.98;;;5.47;;
21729;SDS011;11027;51.030;13.812;2023-02-12T13:08:34;19.88;;;5.30;;
21729;SDS011;11027;51.030;13.812;2023-02-12T13:13:47;27.75;;;9.68;;
21729;SDS011;11027;51.030;13.812;2023-02-12T13:16:19;25.80;;;6.32;;
21729;SDS011;11027;51.030;13.812;2023-02-12T13:18:54;20.98;;;5.95;;
21729;SDS011;11027;51.030;13.812;2023-02-12T13:21:36;19.80;;;5.47;;
21729;SDS011;11027;51.030;13.812;2023-02-12T13:24:30;28.10;;;6.25;;
21729;SDS011;11027;51.030;13.812;2023-02-12T13:27:07;26.63;;;6.10;;
21729;SDS011;11027;51.030;13.812;2023-02-12T13:29:43;21.75;;;6.13;;
21729;SDS011;11027;51.030;13.812;2023-02-12T13:32:13;19.45;;;7.00;;
21729;SDS011;11027;51.030;13.812;2023-02-12T13:34:45;17.92;;;6.80;;
21729;SDS011;11027;51.030;13.812;2023-02-12T13:37:19;21.45;;;7.20;;
21729;SDS011;11027;51.030;13.812;2023-02-12T13:39:59;28.67;;;8.88;;
21729;SDS011;11027;51.030;13.812;2023-02-12T13:42:35;24.45;;;7.43;;
21729;SDS011;11027;51.030;13.812;2023-02-12T13:45:25;18.80;;;6.78;;
21729;SDS011;11027;51.030;13.812;2023-02-12T13:51:11;23.60;;;7.45;;
21729;SDS011;11027;51.030;13.812;2023-02-12T13:53:57;21.70;;;7.93;;
21729;SDS011;11027;51.030;13.812;2023-02-12T13:56:36;20.83;;;7.10;;
21729;SDS011;11027;51.030;13.812;2023-02-12T13:59:53;20.02;;;6.85;;
21729;SDS011;11027;51.030;13.812;2023-02-12T14:01:59;20.98;;;5.88;;
21729;SDS011;11027;51.030;13.812;2023-02-12T14:07:11;14.77;;;5.40;;
21729;SDS011;11027;51.030;13.812;2023-02-12T14:09:58;10.57;;;4.10;;
21729;SDS011;11027;51.030;13.812;2023-02-12T14:12:27;9.77;;;4.40;;
21729;SDS011;11027;51.030;13.812;2023-02-12T14:15:03;10.93;;;4.72;;
21729;SDS011;11027;51.030;13.812;2023-02-12T14:22:55;9.88;;;4.55;;
21729;SDS011;11027;51.030;13.812;2023-02-12T14:30:28;9.13;;;4.67;;
21729;SDS011;11027;51.030;13.812;2023-02-12T14:35:39;10.05;;;4.85;;
21729;SDS011;11027;51.030;13.812;2023-02-12T14:40:47;13.85;;;4.80;;
21729;SDS011;11027;51.030;13.812;2023-02-12T14:45:58;13.43;;;5.30;;
21729;SDS011;11027;51.030;13.812;2023-02-12T14:48:50;14.95;;;6.35;;
21729;SDS011;11027;51.030;13.812;2023-02-12T14:51:34;16.33;;;5.45;;
21729;SDS011;11027;51.030;13.812;2023-02-12T14:54:03;11.90;;;5.07;;
21729;SDS011;11027;51.030;13.812;2023-02-12T14:56:41;11.65;;;5.13;;
21729;SDS011;11027;51.030;13.812;2023-02-12T14:59:13;10.77;;;5.40;;
21729;SDS011;11027;51.030;13.812;2023-02-12T15:01:44;11.85;;;4.80;;
21729;SDS011;11027;51.030;13.812;2023-02-12T15:07:09;10.88;;;5.65;;
21729;SDS011;11027;51.030;13.812;2023-02-12T15:12:18;15.25;;;6.40;;
21729;SDS011;11027;51.030;13.812;2023-02-12T15:14:55;10.38;;;5.75;;
21729;SDS011;11027;51.030;13.812;2023-02-12T15:17:51;11.98;;;5.78;;
21729;SDS011;11027;51.030;13.812;2023-02-12T15:20:22;13.32;;;6.18;;
21729;SDS011;11027;51.030;13.812;2023-02-12T15:22:50;10.05;;;5.72;;
21729;SDS011;11027;51.030;13.812;2023-02-12T15:25:22;15.25;;;6.47;;
21729;SDS011;11027;51.030;13.812;2023-02-12T15:27:54;15.10;;;6.13;;
21729;SDS011;11027;51.030;13.812;2023-02-12T15:30:23;11.80;;;6.40;;
21729;SDS011;11027;51.030;13.812;2023-02-12T15:32:51;12.77;;;6.97;;
21729;SDS011;11027;51.030;13.812;2023-02-12T15:35:19;15.10;;;7.05;;
21729;SDS011;11027;51.030;13.812;2023-02-12T15:37:49;11.43;;;6.35;;
21729;SDS011;11027;51.030;13.812;2023-02-12T15:40:15;15.05;;;7.00;;
21729;SDS011;11027;51.030;13.812;2023-02-12T15:42:50;12.10;;;7.40;;
21729;SDS011;11027;51.030;13.812;2023-02-12T15:45:21;16.05;;;8.20;;
21729;SDS011;11027;51.030;13.812;2023-02-12T15:48:09;16.33;;;7.63;;
21729;SDS011;11027;51.030;13.812;2023-02-12T15:50:46;14.32;;;8.00;;
21729;SDS011;11027;51.030;13.812;2023-02-12T15:53:27;20.50;;;8.20;;
21729;SDS011;11027;51.030;13.812;2023-02-12T15:55:55;13.55;;;7.80;;
21729;SDS011;11027;51.030;13.812;2023-02-12T15:58:40;13.82;;;8.15;;
21729;SDS011;11027;51.030;13.812;2023-02-12T16:01:18;13.38;;;8.05;;
21729;SDS011;11027;51.030;13.812;2023-02-12T16:03:52;14.80;;;8.77;;
21729;SDS011;11027;51.030;13.812;2023-02-12T16:06:20;17.92;;;8.45;;
21729;SDS011;11027;51.030;13.812;2023-02-12T16:11:32;14.25;;;8.43;;
21729;SDS011;11027;51.030;13.812;2023-02-12T16:14:00;13.30;;;8.57;;